createdAt,value
2019-01-19T00:01:26.745Z,64.97
2019-01-19T00:03:54.198Z,64.92
2019-01-19T00:06:51.659Z,64.43
2019-01-19T00:09:27.646Z,64.77
2019-01-19T00:12:07.012Z,64.25
2019-01-19T00:14:31.516Z,64.42
2019-01-19T00:17:13.359Z,64.45
2019-01-19T00:19:57.352Z,64.26
2019-01-19T00:22:38.952Z,64.38
2019-01-19T00:25:27.261Z,64.50
2019-01-19T00:28:10.925Z,64.98
2019-01-19T00:30:44.198Z,64.31
2019-01-19T00:33:17.109Z,64.37
2019-01-19T00:35:59.666Z,64.34
2019-01-19T00:38:59.825Z,64.25
2019-01-19T00:41:45.193Z,64.22
2019-01-19T00:44:24.207Z,64.35
2019-01-19T00:46:51.668Z,64.41
2019-01-19T00:49:18.028Z,64.38
2019-01-19T00:51:45.486Z,64.40
2019-01-19T00:54:21.807Z,64.77
2019-01-19T00:56:49.289Z,65.03
2019-01-19T00:59:16.744Z,64.87
2019-01-19T01:02:03.674Z,64.83
2019-01-19T01:04:42.793Z,64.91
2019-01-19T01:07:26.631Z,65.08
2019-01-19T01:10:13.237Z,64.95
2019-01-19T01:13:01.351Z,65.18
2019-01-19T01:15:40.644Z,64.93
2019-01-19T01:18:16.774Z,65.90
2019-01-19T01:20:49.912Z,66.04
2019-01-19T01:23:32.439Z,66.29
2019-01-19T01:26:20.643Z,65.79
2019-01-19T01:28:50.794Z,65.73
2019-01-19T01:31:33.201Z,65.50
2019-01-19T01:34:18.594Z,65.58
2019-01-19T01:37:12.419Z,65.67
2019-01-19T01:39:42.607Z,65.87
2019-01-19T01:42:15.900Z,65.90
2019-01-19T01:45:13.513Z,66.12
2019-01-19T01:47:57.380Z,65.98
2019-01-19T01:50:33.656Z,66.28
2019-01-19T01:53:24.806Z,66.15
2019-01-19T01:55:49.224Z,66.27
2019-01-19T01:58:16.682Z,66.16
2019-01-19T02:00:44.165Z,66.52
2019-01-19T02:03:35.705Z,66.80
2019-01-19T02:06:05.895Z,66.90
2019-01-19T02:08:39.154Z,67.05
2019-01-19T02:11:09.624Z,67.54
2019-01-19T02:13:48.907Z,68.36
2019-01-19T02:16:32.534Z,67.97
2019-01-19T02:19:11.711Z,68.00
2019-01-19T02:21:50.843Z,67.80
2019-01-19T02:24:35.993Z,68.02
2019-01-19T02:27:37.871Z,67.47
2019-01-19T02:30:07.997Z,67.15
2019-01-19T02:32:57.801Z,67.08
2019-01-19T02:35:48.363Z,67.28
2019-01-19T02:38:15.071Z,67.73
2019-01-19T02:40:48.194Z,67.84
2019-01-19T02:43:21.158Z,68.12
2019-01-19T02:45:54.299Z,67.90
2019-01-19T02:48:38.877Z,68.64
2019-01-19T02:51:18.185Z,68.67
2019-01-19T02:54:04.544Z,68.55
2019-01-19T02:56:40.995Z,68.40
2019-01-19T02:59:14.052Z,67.67
2019-01-19T03:01:49.630Z,67.60
2019-01-19T03:04:33.653Z,67.83
2019-01-19T03:07:21.825Z,67.80
2019-01-19T03:10:16.055Z,67.56
2019-01-19T03:12:51.602Z,67.42
2019-01-19T03:15:21.765Z,67.29
2019-01-19T03:18:09.865Z,67.63
2019-01-19T03:20:46.391Z,68.19
2019-01-19T03:23:28.905Z,69.40
2019-01-19T03:25:59.007Z,69.68
2019-01-19T03:29:02.434Z,69.19
2019-01-19T03:31:46.306Z,68.44
2019-01-19T03:34:31.134Z,68.39
2019-01-19T03:37:07.278Z,68.72
2019-01-19T03:39:51.145Z,68.30
2019-01-19T03:42:18.792Z,68.34
2019-01-19T03:45:01.073Z,68.27
2019-01-19T03:47:34.381Z,68.34
2019-01-19T03:50:31.678Z,67.88
2019-01-19T03:53:07.273Z,67.69
2019-01-19T03:55:55.438Z,67.84
2019-01-19T03:58:50.034Z,68.31
2019-01-19T04:01:35.152Z,68.51
2019-01-19T04:04:20.262Z,68.07
2019-01-19T04:06:56.296Z,68.06
2019-01-19T04:09:42.962Z,68.36
2019-01-19T04:12:37.307Z,68.37
2019-01-19T04:15:24.087Z,68.43
2019-01-19T04:17:57.353Z,68.60
2019-01-19T04:20:44.227Z,68.35
2019-01-19T04:23:08.640Z,68.21
2019-01-19T04:25:40.570Z,68.29
2019-01-19T04:28:05.874Z,68.12
2019-01-19T04:30:30.289Z,68.32
2019-01-19T04:32:54.709Z,68.60
2019-01-19T04:35:19.607Z,68.80
2019-01-19T04:37:44.033Z,68.78
2019-01-19T04:40:12.035Z,68.64
2019-01-19T04:42:37.224Z,68.37
2019-01-19T04:45:01.635Z,68.35
2019-01-19T04:47:26.032Z,68.23
2019-01-19T04:49:50.452Z,68.27
2019-01-19T04:52:14.858Z,68.47
2019-01-19T04:54:39.398Z,68.05
2019-01-19T04:57:03.794Z,67.76
2019-01-19T04:59:28.235Z,67.98
2019-01-19T05:01:52.636Z,68.19
2019-01-19T05:04:17.054Z,68.12
2019-01-19T05:06:41.504Z,68.08
2019-01-19T05:09:07.391Z,68.20
2019-01-19T05:11:31.856Z,68.47
2019-01-19T05:13:56.274Z,68.02
2019-01-19T05:16:20.745Z,68.17
2019-01-19T05:18:45.148Z,68.44
2019-01-19T05:21:09.778Z,68.59
2019-01-19T05:23:34.376Z,68.41
2019-01-19T05:25:58.857Z,68.60
2019-01-19T05:28:23.250Z,68.53
2019-01-19T05:30:47.729Z,68.29
2019-01-19T05:33:12.173Z,68.27
2019-01-19T05:35:36.585Z,68.17
2019-01-19T05:38:01.999Z,68.00
2019-01-19T05:40:26.496Z,68.24
2019-01-19T05:42:51.009Z,68.42
2019-01-19T05:45:15.580Z,68.19
2019-01-19T05:47:40.054Z,68.12
2019-01-19T05:50:07.854Z,67.96
2019-01-19T05:52:32.268Z,67.89
2019-01-19T05:54:56.711Z,67.59
2019-01-19T05:57:21.123Z,67.45
2019-01-19T05:59:45.573Z,67.22
2019-01-19T06:02:10.127Z,67.49
2019-01-19T06:04:34.523Z,68.13
2019-01-19T06:06:58.938Z,68.29
2019-01-19T06:09:23.351Z,68.31
2019-01-19T06:11:47.781Z,68.03
2019-01-19T06:14:12.191Z,68.19
2019-01-19T06:16:36.633Z,68.27
2019-01-19T06:19:01.127Z,68.07
2019-01-19T06:21:26.921Z,67.96
2019-01-19T06:23:51.353Z,67.65
2019-01-19T06:26:15.751Z,67.62
2019-01-19T06:28:40.556Z,67.75
2019-01-19T06:31:04.962Z,68.10
2019-01-19T06:33:29.388Z,68.69
2019-01-19T06:35:53.810Z,69.08
2019-01-19T06:38:18.226Z,68.81
2019-01-19T06:40:42.629Z,68.34
2019-01-19T06:43:07.041Z,68.13
2019-01-19T06:45:31.451Z,67.99
2019-01-19T06:47:55.868Z,68.01
2019-01-19T06:50:20.648Z,67.96
2019-01-19T06:52:45.125Z,68.30
2019-01-19T06:55:12.059Z,68.15
2019-01-19T06:57:36.500Z,68.18
2019-01-19T07:00:00.903Z,68.10
2019-01-19T07:02:25.328Z,68.09
2019-01-19T07:04:49.749Z,67.91
2019-01-19T07:07:14.203Z,68.33
2019-01-19T07:09:38.594Z,68.38
2019-01-19T07:12:03.168Z,69.42
2019-01-19T07:14:27.587Z,68.67
2019-01-19T07:16:52.000Z,68.18
2019-01-19T07:19:16.433Z,67.94
2019-01-19T07:21:40.852Z,68.21
2019-01-19T07:24:05.259Z,68.23
2019-01-19T07:26:29.656Z,67.88
2019-01-19T07:28:54.080Z,68.16
2019-01-19T07:31:18.494Z,68.26
2019-01-19T07:33:42.910Z,68.27
2019-01-19T07:36:07.345Z,68.00
2019-01-19T07:38:31.765Z,68.38
2019-01-19T07:40:56.208Z,68.20
2019-01-19T07:43:21.003Z,67.99
2019-01-19T07:45:45.793Z,67.97
2019-01-19T07:48:10.939Z,67.89
2019-01-19T07:50:35.352Z,67.62
2019-01-19T07:52:59.755Z,67.78
2019-01-19T07:55:24.159Z,68.09
2019-01-19T07:57:48.598Z,67.97
2019-01-19T08:00:21.949Z,67.88
2019-01-19T08:02:46.549Z,67.73
2019-01-19T08:05:11.187Z,67.48
2019-01-19T08:07:35.650Z,67.52
2019-01-19T08:10:00.135Z,67.89
2019-01-19T08:12:24.691Z,67.81
2019-01-19T08:14:49.110Z,67.90
2019-01-19T08:17:13.540Z,68.06
2019-01-19T08:19:37.964Z,67.94
2019-01-19T08:22:02.374Z,67.98
2019-01-19T08:24:26.808Z,68.10
2019-01-19T08:26:51.218Z,68.32
2019-01-19T08:29:15.656Z,68.92
2019-01-19T08:31:40.083Z,68.19
2019-01-19T08:34:04.552Z,67.87
2019-01-19T08:36:29.062Z,67.97
2019-01-19T08:38:53.464Z,68.00
2019-01-19T08:41:17.910Z,67.73
2019-01-19T08:43:43.962Z,67.50
2019-01-19T08:46:08.463Z,67.44
2019-01-19T08:48:32.876Z,67.61
2019-01-19T08:50:57.331Z,67.46
2019-01-19T08:53:21.735Z,67.69
2019-01-19T08:55:46.125Z,67.27
2019-01-19T08:58:10.637Z,67.11
2019-01-19T09:00:35.079Z,67.01
2019-01-19T09:02:59.508Z,67.41
2019-01-19T09:05:23.918Z,67.14
2019-01-19T09:07:48.350Z,67.16
2019-01-19T09:10:15.101Z,67.25
2019-01-19T09:12:39.540Z,67.03
2019-01-19T09:15:05.040Z,66.91
2019-01-19T09:17:29.430Z,66.69
2019-01-19T09:19:53.885Z,66.84
2019-01-19T09:22:18.383Z,67.04
2019-01-19T09:24:42.877Z,66.67
2019-01-19T09:27:07.280Z,67.20
2019-01-19T09:29:31.687Z,67.21
2019-01-19T09:31:56.095Z,66.59
2019-01-19T09:34:20.491Z,66.93
2019-01-19T09:36:44.879Z,67.65
2019-01-19T09:39:10.640Z,67.02
2019-01-19T09:41:35.050Z,66.11
2019-01-19T09:43:59.456Z,67.09
2019-01-19T09:46:23.896Z,66.99
2019-01-19T09:48:48.384Z,66.14
2019-01-19T09:51:12.893Z,65.58
2019-01-19T09:53:37.293Z,65.71
2019-01-19T09:56:01.730Z,65.42
2019-01-19T09:58:26.150Z,65.76
2019-01-19T10:00:50.557Z,64.95
2019-01-19T10:03:14.984Z,64.13
2019-01-19T10:05:39.389Z,64.05
2019-01-19T10:08:03.872Z,63.94
2019-01-19T10:10:28.335Z,63.72
2019-01-19T10:12:52.775Z,63.26
2019-01-19T10:15:21.179Z,62.83
2019-01-19T10:17:45.650Z,62.94
2019-01-19T10:20:13.205Z,62.57
2019-01-19T10:22:37.618Z,62.50
2019-01-19T10:25:02.054Z,61.79
2019-01-19T10:27:26.436Z,61.33
2019-01-19T10:29:50.857Z,62.31
2019-01-19T10:32:15.414Z,60.98
2019-01-19T10:34:39.770Z,60.50
2019-01-19T10:37:04.248Z,60.18
2019-01-19T10:39:28.672Z,59.06
2019-01-19T10:41:53.079Z,59.19
2019-01-19T10:44:17.466Z,59.10
2019-01-19T10:46:41.927Z,59.36
2019-01-19T10:49:06.282Z,58.28
2019-01-19T10:51:30.700Z,57.06
2019-01-19T10:53:55.111Z,56.71
2019-01-19T10:56:19.559Z,54.89
2019-01-19T10:58:43.952Z,55.49
2019-01-19T11:01:08.389Z,54.43
2019-01-19T11:03:32.786Z,53.92
2019-01-19T11:05:57.177Z,53.22
2019-01-19T11:08:21.615Z,52.50
2019-01-19T11:10:46.019Z,52.69
2019-01-19T11:13:10.450Z,52.46
2019-01-19T11:15:34.913Z,52.65
2019-01-19T11:17:59.430Z,51.04
2019-01-19T11:20:29.152Z,51.14
2019-01-19T11:22:53.784Z,50.54
2019-01-19T11:25:18.269Z,49.50
2019-01-19T11:27:42.668Z,48.82
2019-01-19T11:30:13.314Z,47.98
2019-01-19T11:32:44.291Z,47.81
2019-01-19T11:35:04.211Z,48.26
2019-01-19T11:37:28.599Z,46.11
2019-01-19T11:39:53.026Z,44.63
2019-01-19T11:42:17.413Z,43.84
2019-01-19T11:44:41.819Z,42.23
2019-01-19T11:47:06.237Z,41.43
2019-01-19T11:49:30.645Z,42.59
2019-01-19T11:51:55.080Z,42.11
2019-01-19T11:54:19.626Z,40.42
2019-01-19T11:56:44.021Z,39.12
2019-01-19T11:59:08.425Z,39.15
2019-01-19T12:01:32.834Z,41.13
2019-01-19T12:03:57.278Z,42.26
2019-01-19T12:06:21.667Z,42.58
2019-01-19T12:08:46.093Z,42.10
2019-01-19T12:11:10.481Z,43.18
2019-01-19T12:13:34.922Z,41.48
2019-01-19T12:15:59.356Z,39.97
2019-01-19T12:18:23.758Z,39.59
2019-01-19T12:20:48.180Z,38.29
2019-01-19T12:23:12.598Z,39.58
2019-01-19T12:25:37.076Z,41.61
2019-01-19T12:28:01.469Z,41.20
2019-01-19T12:30:28.918Z,41.35
2019-01-19T12:32:53.427Z,42.76
2019-01-19T12:35:18.207Z,42.25
2019-01-19T12:37:42.709Z,42.49
2019-01-19T12:40:10.163Z,41.39
2019-01-19T12:42:34.565Z,39.47
2019-01-19T12:44:58.974Z,36.30
2019-01-19T12:47:28.075Z,35.82
2019-01-19T12:49:52.488Z,36.50
2019-01-19T12:52:16.879Z,38.86
2019-01-19T12:54:41.297Z,40.86
2019-01-19T12:57:05.692Z,41.28
2019-01-19T12:59:30.131Z,41.71
2019-01-19T13:01:54.559Z,42.07
2019-01-19T13:04:18.966Z,41.56
2019-01-19T13:06:43.572Z,41.59
2019-01-19T13:09:12.679Z,40.45
2019-01-19T13:11:42.964Z,39.28
2019-01-19T13:14:07.373Z,38.29
2019-01-19T13:17:04.976Z,38.17
2019-01-19T13:19:32.433Z,40.45
2019-01-19T13:22:05.459Z,40.78
2019-01-19T13:24:50.443Z,40.68
2019-01-19T13:27:29.688Z,41.23
2019-01-19T13:30:21.206Z,40.84
2019-01-19T13:32:51.524Z,41.16
2019-01-19T13:35:40.003Z,40.62
2019-01-19T13:38:25.249Z,39.91
2019-01-19T13:41:01.778Z,40.11
2019-01-19T13:43:34.925Z,41.51
2019-01-19T13:46:08.402Z,42.87
2019-01-19T13:48:41.386Z,43.11
2019-01-19T13:51:14.380Z,43.32
2019-01-19T13:54:05.430Z,43.58
2019-01-19T13:56:44.497Z,43.69
2019-01-19T13:59:23.975Z,44.27
2019-01-19T14:02:30.302Z,44.79
2019-01-19T14:05:30.497Z,45.13
2019-01-19T14:07:57.973Z,45.78
2019-01-19T14:10:34.009Z,46.21
2019-01-19T14:13:01.458Z,46.60
2019-01-19T14:15:37.751Z,46.48
2019-01-19T14:18:19.909Z,46.43
2019-01-19T14:20:50.659Z,46.64
2019-01-19T14:23:37.138Z,47.01
2019-01-19T14:26:27.850Z,47.17
2019-01-19T14:29:00.873Z,47.28
2019-01-19T14:31:53.529Z,48.00
2019-01-19T14:34:26.853Z,48.42
2019-01-19T14:36:54.332Z,48.66
2019-01-19T14:39:42.536Z,48.91
2019-01-19T14:42:24.899Z,48.97
2019-01-19T14:45:03.917Z,49.26
2019-01-19T14:47:46.229Z,49.80
2019-01-19T14:50:22.478Z,49.90
2019-01-19T14:53:04.998Z,49.91
2019-01-19T14:55:38.320Z,50.46
2019-01-19T14:58:14.704Z,50.74
2019-01-19T15:00:48.131Z,51.63
2019-01-19T15:03:27.297Z,52.11
2019-01-19T15:06:03.569Z,51.31
2019-01-19T15:08:33.751Z,51.91
2019-01-19T15:11:03.654Z,52.11
2019-01-19T15:13:34.066Z,52.67
2019-01-19T15:16:25.263Z,52.65
2019-01-19T15:19:18.220Z,52.95
2019-01-19T15:21:57.389Z,53.05
2019-01-19T15:24:27.550Z,53.53
2019-01-19T15:27:23.258Z,54.02
2019-01-19T15:29:55.281Z,54.20
2019-01-19T15:32:31.454Z,54.42
2019-01-19T15:35:19.619Z,54.50
2019-01-19T15:38:07.402Z,54.84
2019-01-19T15:40:43.569Z,54.88
2019-01-19T15:43:13.686Z,55.02
2019-01-19T15:45:59.118Z,55.12
2019-01-19T15:48:34.990Z,55.03
2019-01-19T15:51:11.152Z,55.20
2019-01-19T15:53:38.613Z,55.58
2019-01-19T15:56:39.046Z,55.63
2019-01-19T15:59:24.227Z,55.82
2019-01-19T16:05:15.861Z,56.32
2019-01-19T16:07:46.081Z,56.59
2019-01-19T16:10:24.907Z,56.48
2019-01-19T16:12:52.383Z,56.70
2019-01-19T16:15:40.923Z,56.70
2019-01-19T16:18:26.386Z,56.65
2019-01-19T16:21:12.957Z,56.31
2019-01-19T16:23:49.319Z,56.74
2019-01-19T16:26:31.515Z,56.94
2019-01-19T16:29:04.965Z,56.97
2019-01-19T16:31:47.526Z,56.85
2019-01-19T16:34:43.436Z,57.26
2019-01-19T16:37:25.665Z,57.36
2019-01-19T16:40:04.995Z,57.17
2019-01-19T16:42:41.143Z,57.30
2019-01-19T16:45:20.335Z,57.37
2019-01-19T16:48:08.318Z,57.49
2019-01-19T16:50:59.324Z,57.35
2019-01-19T16:53:44.413Z,57.53
2019-01-19T16:56:20.940Z,57.67
2019-01-19T16:58:56.647Z,57.57
2019-01-19T17:01:33.292Z,57.58
2019-01-19T17:04:12.894Z,57.67
2019-01-19T17:07:01.038Z,57.63
2019-01-19T17:09:34.355Z,57.53
2019-01-19T17:12:22.604Z,58.12
2019-01-19T17:15:12.155Z,57.89
2019-01-19T17:17:59.913Z,58.21
2019-01-19T17:20:33.171Z,57.98
2019-01-19T17:23:12.306Z,58.31
2019-01-19T17:26:00.074Z,58.39
2019-01-19T17:28:30.451Z,58.34
2019-01-19T17:31:14.131Z,58.52
2019-01-19T17:33:47.345Z,58.61
2019-01-19T17:36:17.770Z,58.53
2019-01-19T17:38:47.894Z,58.64
2019-01-19T17:41:30.208Z,58.85
2019-01-19T17:44:06.561Z,58.81
2019-01-19T17:46:54.637Z,58.83
2019-01-19T17:49:27.647Z,59.21
2019-01-19T17:52:06.776Z,59.23
2019-01-19T17:54:36.967Z,59.26
2019-01-19T17:57:13.116Z,59.05
2019-01-19T17:59:43.265Z,59.38
2019-01-19T18:02:26.769Z,59.15
2019-01-19T18:05:12.063Z,59.32
2019-01-19T18:07:57.360Z,59.49
2019-01-19T18:10:42.569Z,59.68
2019-01-19T18:13:41.251Z,59.59
2019-01-19T18:16:37.118Z,59.63
2019-01-19T18:19:07.434Z,59.94
2019-01-19T18:21:43.020Z,60.17
2019-01-19T18:24:26.055Z,60.02
2019-01-19T18:27:08.085Z,60.29
2019-01-19T18:29:46.791Z,60.50
2019-01-19T18:32:33.180Z,60.66
2019-01-19T18:35:12.593Z,60.86
2019-01-19T18:37:51.971Z,60.70
2019-01-19T18:40:34.361Z,60.83
2019-01-19T18:43:31.150Z,61.04
2019-01-19T18:46:01.431Z,61.53
2019-01-19T18:48:37.697Z,61.25
2019-01-19T18:51:10.684Z,61.40
2019-01-19T18:53:40.819Z,61.39
2019-01-19T18:56:35.034Z,61.46
2019-01-19T18:59:08.358Z,61.61
2019-01-19T19:01:59.535Z,61.61
2019-01-19T19:04:32.594Z,61.50
2019-01-19T19:07:02.624Z,61.79
2019-01-19T19:09:33.072Z,61.84
2019-01-19T19:12:12.530Z,61.86
2019-01-19T19:14:57.979Z,61.80
2019-01-19T19:17:32.980Z,61.90
2019-01-19T19:20:15.107Z,61.86
2019-01-19T19:22:54.420Z,61.95
2019-01-19T19:25:33.888Z,62.02
2019-01-19T19:28:09.975Z,62.18
2019-01-19T19:30:55.421Z,62.14
2019-01-19T19:33:40.518Z,61.98
2019-01-19T19:36:34.245Z,62.07
2019-01-19T19:39:29.960Z,62.25
2019-01-19T19:42:16.417Z,62.18
2019-01-19T19:44:52.610Z,62.43
2019-01-19T19:47:32.096Z,62.58
2019-01-19T19:50:14.464Z,62.38
2019-01-19T19:52:38.911Z,62.43
2019-01-19T19:55:02.164Z,62.37
2019-01-19T19:57:26.594Z,62.38
2019-01-19T19:59:51.025Z,62.37
2019-01-19T20:02:31.258Z,62.62
2019-01-19T20:10:49.082Z,62.65
2019-01-19T20:13:13.489Z,62.82
2019-01-19T20:15:37.902Z,62.98
2019-01-19T20:18:02.315Z,63.21
2019-01-19T20:20:26.774Z,63.00
2019-01-19T20:22:51.175Z,63.13
2019-01-19T20:25:15.572Z,62.86
2019-01-19T20:27:40.014Z,63.00
2019-01-19T20:30:12.815Z,63.07
2019-01-19T20:32:37.235Z,63.17
2019-01-19T20:35:01.642Z,63.12
2019-01-19T20:37:26.059Z,63.24
2019-01-19T20:39:50.472Z,63.21
2019-01-19T20:42:14.875Z,63.19
2019-01-19T20:44:39.305Z,63.44
2019-01-19T20:47:03.796Z,63.50
2019-01-19T20:49:28.234Z,63.69
2019-01-19T20:51:52.666Z,63.68
2019-01-19T20:54:18.595Z,63.63
2019-01-19T20:56:43.019Z,64.05
2019-01-19T20:59:07.430Z,63.77
2019-01-19T21:01:31.861Z,63.86
2019-01-19T21:03:56.295Z,63.79
2019-01-19T21:06:21.748Z,64.11
2019-01-19T21:08:46.169Z,63.90
2019-01-19T21:11:10.606Z,64.29
2019-01-19T21:13:36.257Z,64.17
2019-01-19T21:16:00.637Z,64.26
2019-01-19T21:18:25.098Z,64.34
2019-01-19T21:20:49.513Z,64.31
2019-01-19T21:23:13.926Z,64.23
2019-01-19T21:25:38.358Z,64.32
2019-01-19T21:28:02.758Z,64.05
2019-01-19T21:30:27.201Z,64.30
2019-01-19T21:32:51.600Z,64.31
2019-01-19T21:35:16.120Z,64.20
2019-01-19T21:37:40.614Z,64.30
2019-01-19T21:40:13.244Z,64.14
2019-01-19T21:42:37.637Z,64.23
2019-01-19T21:45:02.087Z,64.19
2019-01-19T21:47:26.587Z,64.37
2019-01-19T21:49:51.206Z,64.52
2019-01-19T21:52:15.616Z,64.73
2019-01-19T21:54:40.037Z,64.73
2019-01-19T21:57:04.671Z,64.81
2019-01-19T21:59:29.094Z,64.17
2019-01-19T22:01:53.526Z,64.23
2019-01-19T22:04:17.924Z,64.44
2019-01-19T22:06:42.320Z,64.58
2019-01-19T22:09:07.491Z,64.64
2019-01-19T22:11:31.891Z,64.78
2019-01-19T22:13:56.320Z,65.07
2019-01-19T22:16:20.730Z,64.58
2019-01-19T22:18:45.183Z,64.79
2019-01-19T22:21:09.598Z,64.50
2019-01-19T22:23:34.003Z,64.46
2019-01-19T22:25:58.432Z,64.60
2019-01-19T22:28:22.869Z,64.58
2019-01-19T22:30:47.314Z,64.65
2019-01-19T22:33:12.105Z,65.17
2019-01-19T22:35:36.536Z,64.92
2019-01-19T22:38:00.952Z,64.93
2019-01-19T22:40:25.381Z,65.19
2019-01-19T22:42:50.083Z,65.33
2019-01-19T22:45:16.963Z,65.36
2019-01-19T22:47:41.404Z,65.28
2019-01-19T22:50:08.860Z,65.42
2019-01-19T22:52:33.317Z,65.31
2019-01-19T22:54:57.727Z,65.42
2019-01-19T22:57:22.161Z,65.32
2019-01-19T22:59:46.584Z,65.26
2019-01-19T23:02:11.053Z,65.32
2019-01-19T23:04:35.472Z,65.17
2019-01-19T23:06:59.887Z,65.06
2019-01-19T23:09:24.317Z,65.10
2019-01-19T23:11:48.796Z,65.15
2019-01-19T23:14:13.327Z,65.01
2019-01-19T23:16:37.752Z,65.25
2019-01-19T23:19:02.160Z,65.02
2019-01-19T23:21:26.597Z,65.15
2019-01-19T23:23:51.009Z,65.22
2019-01-19T23:26:15.712Z,65.06
2019-01-19T23:28:40.123Z,64.99
2019-01-19T23:31:04.538Z,65.05
2019-01-19T23:33:28.975Z,65.24
2019-01-19T23:35:53.409Z,65.00
2019-01-19T23:38:17.849Z,65.05
2019-01-19T23:40:42.323Z,64.90
2019-01-19T23:43:06.830Z,64.94
2019-01-19T23:45:31.254Z,64.90
2019-01-19T23:47:55.682Z,64.79
2019-01-19T23:50:20.078Z,64.82
2019-01-19T23:52:45.756Z,64.92
2019-01-19T23:55:10.171Z,65.01
2019-01-19T23:57:34.703Z,65.04
2019-01-19T23:59:59.146Z,64.89
